Connexion S'enregistrer

Connexion à votre compte

Identifiant
Mot de passe
Maintenir la connexion active sur ce site

Créer un compte

Pour valider ce formulaire, vous devez remplir tous les champs.
Nom
Identifiant
Mot de passe
Répétez le mot de passe
Adresse e-mail
Répétez l'adresse e-mail

URGENT! L'Aéroclub recherche de nouveaux instructeurs bénévoles.

Prise de fonction immédiate.

 

L’Aéroclub de Savoie recherche FIAs qualifiés, actifs ou retraités, sans expérience prérequise, pour BB, LAPL, PPL.

Qualif montagne et vol nuit bienvenues.

Souhait d’une implication pédagogique au-delà de l’acquisition d’expérience.

Activité bénévole, défraiement maximum : 60km. 

Contacter le secrétariat ou envoyer candidature par mail.

Nous contacter

 Téléphone : +33 (0)4 79 54 41 81

Coordonnées détaillées et accès : cliquez ici

 
LFLB °C
    Ferienhaus Ostsee
[source: ADDS]
METAR
LFLB 221430Z AUTO 36003KT CAVOK 21/10 Q1020 NOSIG =
TAF
TAF LFLB 221100Z 2212/2312 VRB03KT CAVOK =
SR / SS: 05:24 / 17:33 UTC (Lever/Coucher du soleil le 2017-09-22)
JSN Boot template designed by JoomlaShine.com